Time;durP1;ratioP1;P1;durP2;ratioP2;P2;SDS_P1;SDS_P2;PMS_P1;PMS_P2;Temp;Humidity;BMP_temperature;BMP_pressure;BME280_temperature;BME280_humidity;BME280_pressure;Samples;Min_cycle;Max_cycle;Signal;HPM_P1;HPM_P2
2022/09/17 00:00:33;;;;;;;17.83;3.88;;;9.00;99.90;;;;;;4999573;28;20062;-88
2022/09/17 00:03:04;;;;;;;19.88;3.97;;;9.80;99.90;;;;;;5016169;28;20085;-89
2022/09/17 00:05:36;;;;;;;20.73;4.10;;;9.30;99.90;;;;;;4999541;28;20041;-90
2022/09/17 00:08:14;;;;;;;17.80;4.18;;;9.60;99.90;;;;;;5015261;28;20045;-89
2022/09/17 00:10:50;;;;;;;16.10;3.70;;;9.30;99.90;;;;;;4998928;28;20128;-89
2022/09/17 00:13:18;;;;;;;22.98;4.50;;;9.30;99.90;;;;;;4998887;28;20095;-89
2022/09/17 00:15:50;;;;;;;23.95;4.63;;;9.30;99.90;;;;;;4998362;28;20133;-89
2022/09/17 00:18:28;;;;;;;19.13;3.95;;;9.40;99.90;;;;;;5016011;28;20395;-89
2022/09/17 00:20:54;;;;;;;19.67;4.45;;;9.60;99.90;;;;;;5000184;28;20088;-89
2022/09/17 00:26:08;;;;;;;24.73;4.75;;;10.10;99.90;;;;;;5015345;28;20064;-89
2022/09/17 00:28:47;;;;;;;;;;;;;;;;;;;;;
2022/09/17 00:31:30;;;;;;;21.80;4.53;;;9.50;99.90;;;;;;5015691;28;20053;-93
2022/09/17 00:34:27;;;;;;;13.95;3.63;;;9.60;99.90;;;;;;5014450;28;20061;-90
2022/09/17 00:37:03;;;;;;;17.00;3.78;;;10.10;99.90;;;;;;4999280;28;20049;-91
2022/09/17 00:39:40;;;;;;;17.08;3.42;;;10.20;99.90;;;;;;4998971;28;20038;-89
2022/09/17 00:45:26;;;;;;;14.05;3.30;;;10.40;99.90;;;;;;5009701;28;20136;-89
2022/09/17 00:47:58;;;;;;;12.98;3.38;;;10.40;99.90;;;;;;5014875;28;20046;-90
2022/09/17 00:50:52;;;;;;;14.93;3.20;;;10.40;99.90;;;;;;4998325;28;20065;-90
2022/09/17 00:53:26;;;;;;;17.00;4.00;;;10.00;99.90;;;;;;4998558;28;20045;-89
2022/09/17 00:56:02;;;;;;;20.17;3.90;;;10.20;99.90;;;;;;4983702;28;20053;-90
2022/09/17 00:58:37;;;;;;;18.17;3.80;;;10.10;99.90;;;;;;4997005;28;20054;-89
2022/09/17 01:01:23;;;;;;;22.55;4.25;;;10.00;99.90;;;;;;4998379;28;20424;-89
2022/09/17 01:04:21;;;;;;;15.40;3.33;;;9.90;99.90;;;;;;4998875;28;20478;-89
2022/09/17 01:07:28;;;;;;;15.93;3.40;;;9.80;99.90;;;;;;4999986;28;20046;-89
2022/09/17 01:10:28;;;;;;;15.25;3.38;;;9.70;99.90;;;;;;4997558;28;20042;-89
2022/09/17 01:13:36;;;;;;;15.13;4.10;;;9.60;99.90;;;;;;4999031;28;20046;-89
2022/09/17 01:16:57;;;;;;;16.30;3.22;;;9.50;99.90;;;;;;5014995;28;20140;-89
2022/09/17 01:20:12;;;;;;;13.52;3.50;;;9.20;99.90;;;;;;4938581;29;20507;-89
2022/09/17 01:23:08;;;;;;;17.38;4.20;;;9.30;99.90;;;;;;4998222;28;20144;-90
2022/09/17 01:25:52;;;;;;;11.32;2.97;;;9.20;99.90;;;;;;4998227;28;20053;-89
2022/09/17 01:28:32;;;;;;;14.93;3.47;;;9.10;99.90;;;;;;4997795;28;20046;-89
2022/09/17 01:31:05;;;;;;;17.45;4.03;;;9.10;99.90;;;;;;4998684;28;20048;-88
2022/09/17 01:33:48;;;;;;;15.30;3.42;;;9.00;99.90;;;;;;5013706;28;20049;-89
2022/09/17 01:36:17;;;;;;;14.85;3.75;;;9.00;99.90;;;;;;4997810;28;20057;-89
2022/09/17 01:39:14;;;;;;;17.58;3.30;;;8.60;99.90;;;;;;4998588;28;20049;-88
2022/09/17 01:45:11;;;;;;;15.73;3.60;;;9.60;99.90;;;;;;5013397;28;20084;-88
2022/09/17 01:48:00;;;;;;;13.63;3.72;;;8.90;99.90;;;;;;5014403;28;20049;-89
2022/09/17 01:50:32;;;;;;;15.13;4.40;;;8.90;99.90;;;;;;4997388;28;20049;-88
2022/09/17 01:53:01;;;;;;;13.18;3.42;;;8.80;99.90;;;;;;5013828;28;20085;-89
2022/09/17 01:55:34;;;;;;;14.70;3.30;;;8.80;99.90;;;;;;4997581;28;20107;-89
2022/09/17 01:58:14;;;;;;;17.73;3.58;;;8.80;99.90;;;;;;4997981;28;20041;-89
2022/09/17 02:00:44;;;;;;;23.00;3.83;;;8.70;99.90;;;;;;5013421;28;20136;-88
2022/09/17 02:03:25;;;;;;;14.25;3.10;;;8.70;99.90;;;;;;5014135;28;20112;-89
2022/09/17 02:06:03;;;;;;;15.93;3.20;;;9.00;99.90;;;;;;4998152;28;20053;-89
2022/09/17 02:08:37;;;;;;;12.65;3.15;;;8.10;99.90;;;;;;5013120;28;20041;-89
2022/09/17 02:11:09;;;;;;;;;;;8.40;99.90;;;;;;4982007;28;20140;-88
2022/09/17 02:14:10;;;;;;;13.85;2.72;;;8.30;99.90;;;;;;5013859;28;19928;-89
2022/09/17 02:16:50;;;;;;;12.82;3.33;;;8.50;99.90;;;;;;4996937;28;20056;-89
2022/09/17 02:19:34;;;;;;;21.33;3.55;;;8.10;99.90;;;;;;5011889;28;20057;-89
2022/09/17 02:22:22;;;;;;;13.60;3.20;;;8.10;99.90;;;;;;4997086;28;20132;-89
2022/09/17 02:25:11;;;;;;;18.65;4.07;;;8.40;99.90;;;;;;4997760;28;20471;-88
2022/09/17 02:27:55;;;;;;;14.52;3.38;;;8.10;99.90;;;;;;4996895;28;20049;-89
2022/09/17 02:30:30;;;;;;;15.93;3.58;;;8.10;99.90;;;;;;4996950;28;20481;-88
2022/09/17 02:33:02;;;;;;;19.15;4.13;;;8.00;99.90;;;;;;4995971;28;20053;-89
2022/09/17 02:35:30;;;;;;;23.88;3.80;;;8.70;99.90;;;;;;5013076;28;20042;-88
2022/09/17 02:37:56;;;;;;;19.00;3.95;;;9.20;99.90;;;;;;5013181;28;20046;-89
2022/09/17 02:40:26;;;;;;;16.35;3.85;;;8.70;99.90;;;;;;4997080;28;20046;-89
2022/09/17 02:43:27;;;;;;;14.45;3.45;;;8.80;99.90;;;;;;4997045;28;20062;-89
2022/09/17 02:46:24;;;;;;;12.10;2.97;;;8.90;99.90;;;;;;5012831;28;20092;-89
2022/09/17 02:49:32;;;;;;;12.18;2.90;;;9.70;99.90;;;;;;4995604;28;20046;-89
2022/09/17 02:52:16;;;;;;;12.02;3.15;;;9.00;99.90;;;;;;5013455;28;20046;-89
2022/09/17 02:55:16;;;;;;;12.10;2.88;;;9.40;99.90;;;;;;4996534;28;20053;-89
2022/09/17 02:58:02;;;;;;;13.05;3.40;;;8.90;99.90;;;;;;4997180;28;20056;-90
2022/09/17 03:00:30;;;;;;;17.90;3.45;;;8.90;99.90;;;;;;4996552;28;20134;-89
2022/09/17 03:03:11;;;;;;;13.60;3.58;;;8.90;99.90;;;;;;4996646;28;20057;-90
2022/09/17 03:05:38;;;;;;;19.63;3.40;;;8.90;99.90;;;;;;4996492;28;20046;-89
2022/09/17 03:11:07;;;;;;;15.53;3.43;;;9.50;99.90;;;;;;5005310;28;20049;-88
2022/09/17 03:13:41;;;;;;;14.20;2.83;;;9.00;99.90;;;;;;5013065;28;20466;-88
2022/09/17 03:16:17;;;;;;;16.67;3.90;;;8.60;99.90;;;;;;4996217;28;20045;-89
2022/09/17 03:18:47;;;;;;;15.20;3.38;;;8.70;99.90;;;;;;4997435;28;20061;-88
2022/09/17 03:21:24;;;;;;;15.48;3.17;;;8.70;99.90;;;;;;4981427;28;20046;-88
2022/09/17 03:23:50;;;;;;;15.82;3.17;;;8.60;99.90;;;;;;5016985;28;20108;-89
2022/09/17 03:26:23;;;;;;;16.88;3.80;;;8.60;99.90;;;;;;4999535;28;20049;-89
2022/09/17 03:28:51;;;;;;;16.70;2.95;;;8.50;99.90;;;;;;4999919;28;20100;-89
2022/09/17 03:31:16;;;;;;;14.05;3.00;;;9.00;99.90;;;;;;4984281;28;20121;-88
2022/09/17 03:33:42;;;;;;;15.32;3.00;;;8.50;99.90;;;;;;4999231;28;20450;-89
2022/09/17 03:36:13;;;;;;;17.35;3.40;;;8.50;99.90;;;;;;5000156;28;20053;-90
2022/09/17 03:38:48;;;;;;;17.98;4.40;;;8.60;99.90;;;;;;5015681;28;20084;-89
2022/09/17 03:41:19;;;;;;;17.70;3.60;;;8.70;99.90;;;;;;4999949;28;20053;-89
2022/09/17 03:43:47;;;;;;;16.90;3.63;;;8.80;99.90;;;;;;4984321;28;20359;-88
2022/09/17 03:46:15;;;;;;;21.27;3.85;;;8.90;99.90;;;;;;5016607;28;20075;-88
2022/09/17 03:48:43;;;;;;;15.63;3.15;;;8.90;99.90;;;;;;4999844;28;20077;-88
2022/09/17 03:51:17;;;;;;;16.27;3.15;;;9.40;99.90;;;;;;4999421;28;20053;-88
2022/09/17 03:53:45;;;;;;;17.17;3.28;;;8.90;99.90;;;;;;4999845;28;20472;-88
2022/09/17 03:56:13;;;;;;;18.23;3.33;;;9.50;99.90;;;;;;5000516;28;20044;-88
2022/09/17 03:58:39;;;;;;;16.80;3.80;;;8.80;99.90;;;;;;4999455;28;20137;-88
2022/09/17 04:01:11;;;;;;;13.68;2.70;;;8.70;99.90;;;;;;5015639;28;20050;-89
2022/09/17 04:03:41;;;;;;;13.55;2.85;;;8.70;99.90;;;;;;5015551;28;20551;-88
2022/09/17 04:06:09;;;;;;;15.82;3.10;;;8.40;99.90;;;;;;4998519;28;20049;-88
2022/09/17 04:08:46;;;;;;;17.23;3.55;;;8.60;99.90;;;;;;5015253;28;20193;-89
2022/09/17 04:11:14;;;;;;;17.95;3.75;;;8.60;99.90;;;;;;4984012;28;20092;-89
2022/09/17 04:13:43;;;;;;;13.75;2.92;;;8.10;99.90;;;;;;5015251;28;20136;-89
2022/09/17 04:16:08;;;;;;;14.18;2.90;;;9.10;99.90;;;;;;4998661;28;20537;-88
2022/09/17 04:18:36;;;;;;;14.02;3.55;;;8.00;99.90;;;;;;5015484;28;20136;-88
2022/09/17 04:21:11;;;;;;;15.23;3.60;;;8.30;99.90;;;;;;5014917;28;20046;-88
2022/09/17 04:23:36;;;;;;;15.93;2.90;;;8.30;99.90;;;;;;5015881;28;20045;-88
2022/09/17 04:26:05;;;;;;;11.73;3.03;;;8.20;99.90;;;;;;4998788;28;20049;-89
2022/09/17 04:28:38;;;;;;;10.80;3.40;;;8.20;99.90;;;;;;4999274;28;20085;-88
2022/09/17 04:31:03;;;;;;;22.20;4.07;;;8.10;99.90;;;;;;4999170;28;20054;-89
2022/09/17 04:33:44;;;;;;;;;;;;;;;;;;;;;
2022/09/17 04:36:17;;;;;;;17.00;3.40;;;8.10;99.90;;;;;;5015268;28;20058;-89
2022/09/17 04:38:50;;;;;;;15.53;3.40;;;9.00;99.90;;;;;;4998273;28;20429;-88
2022/09/17 04:41:23;;;;;;;19.27;3.40;;;8.60;99.90;;;;;;4983061;28;20297;-89
2022/09/17 04:43:49;;;;;;;15.17;3.60;;;8.30;99.90;;;;;;4998668;28;20138;-89
2022/09/17 04:46:15;;;;;;;13.88;3.30;;;8.40;99.90;;;;;;5015585;28;20143;-89
2022/09/17 04:49:01;;;;;;;17.42;3.38;;;8.60;99.90;;;;;;4998819;28;20053;-89
2022/09/17 04:51:30;;;;;;;17.05;3.15;;;8.10;99.90;;;;;;5014452;28;20058;-89
2022/09/17 04:53:55;;;;;;;14.35;2.72;;;8.60;99.90;;;;;;4982269;28;20054;-89
2022/09/17 04:56:24;;;;;;;19.10;3.78;;;8.70;99.90;;;;;;4997530;28;20092;-89
2022/09/17 04:58:57;;;;;;;14.43;3.38;;;7.90;99.90;;;;;;4997778;28;20091;-88
2022/09/17 05:01:22;;;;;;;16.23;3.17;;;7.90;99.90;;;;;;4998407;28;20120;-89
2022/09/17 05:03:56;;;;;;;16.75;3.15;;;7.90;99.90;;;;;;4998321;28;20049;-88
2022/09/17 05:06:23;;;;;;;19.05;3.60;;;7.90;99.90;;;;;;4998144;28;20057;-89
2022/09/17 05:08:49;;;;;;;11.38;3.13;;;7.80;99.90;;;;;;4997254;28;20042;-88
2022/09/17 05:11:29;;;;;;;15.98;3.53;;;7.90;99.90;;;;;;5014362;28;20128;-88
2022/09/17 05:13:57;;;;;;;13.38;3.17;;;8.00;99.90;;;;;;5014785;28;20054;-89
2022/09/17 05:16:26;;;;;;;12.65;3.10;;;7.80;99.90;;;;;;4997750;28;20481;-89
2022/09/17 05:18:54;;;;;;;13.30;3.10;;;7.80;99.90;;;;;;4997306;28;20077;-89
2022/09/17 05:21:38;;;;;;;;;;;;;;;;;;;;;
2022/09/17 05:24:12;;;;;;;16.27;4.03;;;8.40;99.90;;;;;;5013931;28;20054;-88
2022/09/17 05:29:37;;;;;;;16.58;3.65;;;7.80;99.90;;;;;;5000349;28;20046;-89
2022/09/17 05:32:11;;;;;;;19.70;4.22;;;8.00;99.90;;;;;;4981449;28;20045;-89
2022/09/17 05:34:50;;;;;;;14.85;3.45;;;7.40;99.90;;;;;;4997408;28;20076;-88
2022/09/17 05:37:16;;;;;;;17.20;3.60;;;8.40;99.90;;;;;;4997258;28;20061;-89
2022/09/17 05:39:48;;;;;;;17.02;4.22;;;8.40;99.90;;;;;;5014062;28;20448;-91
2022/09/17 05:45:08;;;;;;;14.65;3.55;;;8.90;99.90;;;;;;5006110;28;20426;-89
2022/09/17 05:47:39;;;;;;;10.65;2.35;;;9.20;99.90;;;;;;5013686;28;20045;-90
2022/09/17 05:50:08;;;;;;;14.45;3.00;;;9.40;99.90;;;;;;4997032;28;20056;-89
2022/09/17 05:52:47;;;;;;;10.70;2.40;;;9.40;99.90;;;;;;4997282;28;20497;-88
2022/09/17 05:55:46;;;;;;;;;;;;;;;;;;;;;
2022/09/17 05:58:24;;;;;;;8.05;2.20;;;9.50;99.90;;;;;;5013122;28;20042;-89
2022/09/17 06:01:23;;;;;;;8.18;2.53;;;9.50;99.90;;;;;;4982119;28;20050;-89
2022/09/17 06:04:01;;;;;;;9.38;2.47;;;9.60;99.90;;;;;;5012291;28;20119;-90
2022/09/17 06:06:55;;;;;;;6.93;1.92;;;9.40;99.90;;;;;;4981970;28;20417;-90
2022/09/17 06:09:23;;;;;;;10.17;2.07;;;9.30;99.90;;;;;;4997191;28;20045;-90
2022/09/17 06:11:52;;;;;;;10.20;2.75;;;9.30;99.90;;;;;;4997504;28;20137;-89
2022/09/17 06:14:21;;;;;;;10.50;2.20;;;9.30;99.90;;;;;;4997369;28;20136;-89
2022/09/17 06:16:49;;;;;;;8.55;1.85;;;9.30;99.90;;;;;;4997405;28;20050;-89
2022/09/17 06:19:14;;;;;;;14.02;2.55;;;9.20;99.90;;;;;;4996839;28;20132;-89
2022/09/17 06:21:45;;;;;;;11.13;2.35;;;9.60;99.90;;;;;;5012986;28;20569;-88
2022/09/17 06:24:14;;;;;;;8.35;2.42;;;9.00;99.90;;;;;;5012793;28;20137;-90
2022/09/17 06:26:55;;;;;;;11.95;2.42;;;9.20;99.90;;;;;;4996103;28;20045;-88
2022/09/17 06:29:26;;;;;;;9.80;2.42;;;9.10;99.90;;;;;;4980475;28;20520;-89
2022/09/17 06:31:59;;;;;;;15.07;2.42;;;9.10;99.90;;;;;;4996305;28;20107;-88
2022/09/17 06:34:30;;;;;;;13.38;2.70;;;9.00;99.90;;;;;;4980729;28;20057;-88
2022/09/17 06:37:28;;;;;;;12.68;3.20;;;9.50;99.90;;;;;;4998625;28;20468;-95
2022/09/17 06:40:16;;;;;;;10.18;2.30;;;9.00;99.90;;;;;;4998440;28;20056;-90
2022/09/17 06:42:54;;;;;;;8.95;2.42;;;9.00;99.90;;;;;;4998244;28;20409;-90
2022/09/17 06:46:49;;;;;;;;;;;;;;;;;;;;;
2022/09/17 06:52:56;;;;;;;6.68;1.70;;;9.30;99.90;;;;;;4970079;28;20448;-90
2022/09/17 06:59:04;;;;;;;11.93;2.75;;;9.60;99.90;;;;;;4957395;29;20052;-88
2022/09/17 07:14:47;;;;;;;15.45;2.50;;;9.70;99.90;;;;;;4997083;28;20156;-88
2022/09/17 07:17:18;;;;;;;15.52;3.47;;;9.80;99.90;;;;;;5015983;28;20044;-90
2022/09/17 07:19:51;;;;;;;13.00;3.05;;;9.80;99.90;;;;;;4970292;28;20367;-89
2022/09/17 07:22:30;;;;;;;15.32;3.55;;;10.10;99.90;;;;;;5001182;28;20097;-89
2022/09/17 07:24:56;;;;;;;12.10;2.50;;;10.20;99.90;;;;;;4999939;28;20089;-88
2022/09/17 07:27:26;;;;;;;17.27;2.80;;;10.20;99.90;;;;;;5016394;28;20113;-88
2022/09/17 07:29:52;;;;;;;10.25;2.25;;;10.60;99.90;;;;;;4999607;28;20038;-88
2022/09/17 07:32:31;;;;;;;;;;;;;;;;;;;;;
2022/09/17 07:35:24;;;;;;;12.68;2.60;;;10.20;99.90;;;;;;5017108;28;20050;-92
2022/09/17 07:37:52;;;;;;;12.70;2.78;;;10.10;99.90;;;;;;5017247;28;20046;-89
2022/09/17 07:40:25;;;;;;;11.90;2.83;;;10.40;99.90;;;;;;4999686;28;20052;-89
2022/09/17 07:42:56;;;;;;;11.65;2.40;;;10.50;99.90;;;;;;4999245;28;20038;-90
2022/09/17 07:46:05;;;;;;;10.43;2.40;;;10.60;99.90;;;;;;4999108;28;20041;-90
2022/09/17 07:48:42;;;;;;;15.23;2.72;;;10.60;99.90;;;;;;5000080;28;20046;-88
2022/09/17 07:51:29;;;;;;;13.95;2.60;;;11.20;99.90;;;;;;4999205;28;20515;-90
2022/09/17 07:53:58;;;;;;;13.45;2.45;;;10.80;99.90;;;;;;4999786;28;20050;-90
2022/09/17 07:56:27;;;;;;;13.15;2.83;;;11.00;99.90;;;;;;5000188;28;20107;-89
2022/09/17 07:58:56;;;;;;;12.98;2.63;;;11.10;99.90;;;;;;5016718;28;20060;-89
2022/09/17 08:01:35;;;;;;;13.00;2.65;;;11.20;99.90;;;;;;5000645;28;20057;-90
2022/09/17 08:04:21;;;;;;;13.43;3.08;;;11.70;99.90;;;;;;4999931;28;20052;-90
2022/09/17 08:07:12;;;;;;;11.32;2.70;;;11.60;99.90;;;;;;4984738;28;20053;-93
2022/09/17 08:10:08;;;;;;;14.32;3.20;;;11.60;99.90;;;;;;4999007;28;20112;-94
2022/09/17 08:12:48;;;;;;;13.90;2.53;;;11.30;99.90;;;;;;4986998;28;20085;-92
2022/09/17 08:15:28;;;;;;;12.38;2.65;;;11.30;99.90;;;;;;4999120;28;20428;-90
2022/09/17 08:17:53;;;;;;;10.95;2.50;;;10.90;99.90;;;;;;5015632;28;20041;-90
2022/09/17 08:20:25;;;;;;;8.65;2.20;;;10.70;99.90;;;;;;4999722;28;20099;-90
2022/09/17 08:23:02;;;;;;;9.38;2.63;;;10.50;99.90;;;;;;4999748;28;20580;-88
2022/09/17 08:25:54;;;;;;;11.05;2.58;;;10.40;99.90;;;;;;4998393;28;20550;-91
2022/09/17 08:28:30;;;;;;;13.30;2.42;;;10.20;99.90;;;;;;5014101;28;20140;-89
2022/09/17 08:31:12;;;;;;;;;;;;;;;;;;;;;
2022/09/17 08:33:40;;;;;;;10.45;2.40;;;10.20;99.90;;;;;;5014597;28;20054;-88
2022/09/17 08:36:11;;;;;;;11.60;2.40;;;10.20;99.90;;;;;;4998600;28;20077;-88
2022/09/17 08:38:40;;;;;;;9.73;2.50;;;10.30;99.90;;;;;;5015045;28;20042;-88
2022/09/17 08:41:40;;;;;;;13.90;2.65;;;10.40;99.90;;;;;;4998558;28;20073;-86
2022/09/17 08:44:08;;;;;;;10.27;2.60;;;10.60;99.90;;;;;;5015492;28;20052;-88
2022/09/17 08:46:45;;;;;;;13.82;2.50;;;10.70;99.90;;;;;;5015152;28;20054;-87
2022/09/17 08:49:33;;;;;;;15.52;2.30;;;10.90;99.90;;;;;;4999235;28;20050;-88
2022/09/17 08:52:08;;;;;;;14.23;3.15;;;11.20;99.90;;;;;;4997999;28;20085;-89
2022/09/17 08:55:11;;;;;;;12.30;2.80;;;11.30;99.90;;;;;;5014618;28;20129;-89
2022/09/17 08:58:27;;;;;;;14.18;3.05;;;11.50;99.90;;;;;;4998600;28;20046;-90
2022/09/17 09:01:02;;;;;;;10.77;2.30;;;11.40;99.90;;;;;;4993696;28;20057;-88
2022/09/17 09:03:31;;;;;;;11.57;2.38;;;11.10;99.90;;;;;;4998822;28;20088;-87
2022/09/17 09:05:59;;;;;;;12.55;2.60;;;11.20;99.90;;;;;;4998182;28;20148;-87
2022/09/17 09:08:36;;;;;;;13.75;2.60;;;11.20;99.90;;;;;;4998046;28;20100;-88
2022/09/17 09:11:08;;;;;;;11.77;2.30;;;11.20;99.90;;;;;;4998668;28;20085;-88
2022/09/17 09:13:43;;;;;;;13.50;2.50;;;11.20;99.90;;;;;;4998823;28;20056;-88
2022/09/17 09:16:24;;;;;;;11.98;2.33;;;11.30;99.90;;;;;;4998463;28;20477;-87
2022/09/17 09:18:55;;;;;;;10.20;3.17;;;11.30;99.90;;;;;;5013587;28;20060;-89
2022/09/17 09:22:03;;;;;;;12.15;3.05;;;11.40;99.90;;;;;;4996942;28;20402;-86
2022/09/17 09:24:35;;;;;;;12.40;2.83;;;11.30;99.90;;;;;;4969442;28;20049;-87
2022/09/17 09:27:16;;;;;;;10.95;2.88;;;11.00;99.90;;;;;;4997695;28;20091;-87
2022/09/17 09:29:57;;;;;;;10.57;2.63;;;11.10;99.90;;;;;;5014002;28;20068;-87
2022/09/17 09:32:37;;;;;;;13.45;3.17;;;11.10;99.90;;;;;;5014200;28;20042;-88
2022/09/17 09:35:16;;;;;;;10.40;2.40;;;11.30;99.90;;;;;;5014586;28;20377;-86
2022/09/17 09:38:06;;;;;;;12.50;2.70;;;11.60;99.90;;;;;;5013948;28;20045;-87
2022/09/17 09:40:43;;;;;;;10.20;2.10;;;11.80;99.90;;;;;;4989637;28;20068;-87
2022/09/17 09:43:21;;;;;;;10.57;2.50;;;11.80;99.90;;;;;;5013471;28;20103;-90
2022/09/17 09:45:58;;;;;;;8.77;2.17;;;11.60;99.90;;;;;;5013747;28;20435;-89
2022/09/17 09:48:45;;;;;;;9.82;2.33;;;11.50;99.90;;;;;;4996845;28;20100;-89
2022/09/17 09:52:09;;;;;;;9.50;2.50;;;11.40;99.90;;;;;;4997995;28;20053;-92
2022/09/17 09:55:01;;;;;;;16.77;3.13;;;11.40;99.90;;;;;;5012908;28;20056;-87
2022/09/17 09:57:41;;;;;;;14.13;2.88;;;11.50;99.90;;;;;;5013029;28;20488;-86
2022/09/17 10:00:37;;;;;;;10.45;2.38;;;11.70;99.90;;;;;;5013241;28;20105;-87
2022/09/17 10:03:20;;;;;;;16.23;3.10;;;12.00;99.90;;;;;;5001503;28;20053;-87
2022/09/17 10:06:20;;;;;;;11.80;2.30;;;12.10;99.90;;;;;;4997187;28;20049;-87
2022/09/17 10:09:06;;;;;;;10.55;3.75;;;12.30;99.90;;;;;;5012847;28;20054;-89
2022/09/17 10:11:32;;;;;;;10.90;2.70;;;12.60;99.90;;;;;;4996843;28;20114;-88
2022/09/17 10:14:30;;;;;;;15.68;2.83;;;12.80;99.90;;;;;;5012817;28;20132;-90
2022/09/17 10:17:18;;;;;;;15.73;2.80;;;12.90;99.90;;;;;;5013953;28;20046;-88
2022/09/17 10:22:54;;;;;;;11.38;3.03;;;12.80;99.90;;;;;;5008241;28;20109;-89
2022/09/17 10:25:34;;;;;;;13.98;3.05;;;12.80;99.90;;;;;;5004089;28;20046;-92
2022/09/17 10:28:04;;;;;;;13.00;2.83;;;13.00;99.90;;;;;;4997026;28;20081;-87
2022/09/17 10:30:39;;;;;;;16.83;3.45;;;13.00;99.90;;;;;;5013174;28;20041;-89
2022/09/17 10:33:21;;;;;;;14.48;3.05;;;12.80;99.90;;;;;;4996877;28;20054;-88
2022/09/17 10:36:13;;;;;;;13.55;2.70;;;12.60;99.90;;;;;;4996704;28;20136;-88
2022/09/17 10:38:49;;;;;;;16.25;3.63;;;12.30;99.90;;;;;;4992328;28;20054;-90
2022/09/17 10:41:30;;;;;;;23.08;3.88;;;12.10;99.90;;;;;;4997429;28;20057;-88
2022/09/17 10:43:56;;;;;;;17.05;3.40;;;12.00;99.90;;;;;;4996766;28;20177;-89
2022/09/17 10:46:28;;;;;;;16.42;3.40;;;12.00;99.90;;;;;;4996372;28;20501;-88
2022/09/17 10:49:10;;;;;;;12.85;2.85;;;12.00;99.90;;;;;;4996244;28;20050;-87
2022/09/17 10:51:39;;;;;;;10.95;2.95;;;11.90;99.90;;;;;;4996589;28;20089;-88
2022/09/17 10:54:32;;;;;;;11.73;2.88;;;11.90;99.90;;;;;;5012958;28;20053;-88
2022/09/17 10:57:11;;;;;;;12.75;3.20;;;12.00;99.90;;;;;;5012978;28;20050;-90
2022/09/17 11:00:03;;;;;;;14.77;3.08;;;12.00;99.90;;;;;;5012599;28;20457;-89
2022/09/17 11:02:45;;;;;;;11.65;2.78;;;12.10;99.90;;;;;;4996470;28;20388;-88
2022/09/17 11:05:55;;;;;;;;;;;;;;;;;;;;;
2022/09/17 11:08:32;;;;;;;13.85;3.83;;;12.40;99.90;;;;;;5012191;28;20065;-90
2022/09/17 11:14:46;;;;;;;16.23;3.22;;;13.00;99.90;;;;;;5012647;28;20156;-89
2022/09/17 11:17:49;;;;;;;19.25;3.55;;;13.30;99.90;;;;;;4996425;28;20065;-88
2022/09/17 11:20:49;;;;;;;15.52;3.38;;;13.60;99.90;;;;;;4988005;28;20069;-88
2022/09/17 11:23:56;;;;;;;14.45;2.75;;;13.70;99.90;;;;;;4996442;28;20064;-87
2022/09/17 11:26:44;;;;;;;15.20;3.15;;;13.60;99.90;;;;;;4988543;28;20073;-91
2022/09/17 11:29:33;;;;;;;15.30;3.10;;;13.50;99.90;;;;;;4995780;28;20100;-88
2022/09/17 11:32:11;;;;;;;15.60;3.20;;;13.40;99.90;;;;;;5012204;28;20042;-88
2022/09/17 11:34:52;;;;;;;14.20;3.10;;;13.40;99.90;;;;;;4995562;28;20485;-87
2022/09/17 11:37:39;;;;;;;12.15;3.42;;;13.30;99.90;;;;;;5012976;28;20380;-88
2022/09/17 11:40:18;;;;;;;14.02;3.30;;;13.30;99.90;;;;;;4996087;28;20061;-88
2022/09/17 11:42:53;;;;;;;14.27;4.30;;;13.30;99.90;;;;;;5013944;28;20481;-87
2022/09/17 11:45:39;;;;;;;13.38;3.55;;;13.20;99.90;;;;;;4999519;28;20056;-89
2022/09/17 11:48:21;;;;;;;9.75;2.85;;;13.30;99.90;;;;;;5015532;28;20379;-89
2022/09/17 11:51:35;;;;;;;15.60;3.45;;;13.10;99.90;;;;;;4999312;28;20515;-88
2022/09/17 11:54:15;;;;;;;15.07;3.33;;;13.70;99.90;;;;;;4986438;28;20444;-88
2022/09/17 11:56:49;;;;;;;12.35;2.78;;;14.00;99.90;;;;;;5015894;28;20042;-89
2022/09/17 11:59:47;;;;;;;16.20;3.20;;;14.30;99.90;;;;;;4998713;28;20488;-88
2022/09/17 12:02:48;;;;;;;14.90;3.17;;;14.40;99.90;;;;;;5015754;28;20042;-87
2022/09/17 12:05:23;;;;;;;15.35;3.70;;;14.30;99.90;;;;;;4987170;28;20050;-88
2022/09/17 12:08:18;;;;;;;10.82;3.00;;;14.00;99.90;;;;;;4999460;28;20042;-87
2022/09/17 12:11:07;;;;;;;13.88;3.33;;;13.90;99.90;;;;;;5000167;28;20374;-89
2022/09/17 12:13:47;;;;;;;14.98;2.97;;;13.80;99.90;;;;;;4999379;28;20429;-89
2022/09/17 12:16:26;;;;;;;19.23;3.70;;;14.10;99.90;;;;;;5015413;28;20046;-87
2022/09/17 12:18:59;;;;;;;13.35;3.10;;;14.20;99.90;;;;;;5015572;28;20537;-88
2022/09/17 12:21:32;;;;;;;12.85;3.33;;;14.40;99.90;;;;;;4998698;28;20054;-92
2022/09/17 12:24:19;;;;;;;11.85;3.22;;;14.50;99.90;;;;;;5016940;28;20042;-92
2022/09/17 12:27:06;;;;;;;12.57;2.70;;;14.70;99.90;;;;;;5015722;28;20147;-87
2022/09/17 12:29:48;;;;;;;13.57;3.10;;;14.80;99.20;;;;;;5014610;28;20042;-90
2022/09/17 12:32:23;;;;;;;17.02;3.60;;;14.80;98.30;;;;;;4998852;28;20046;-87
2022/09/17 12:35:16;;;;;;;17.23;2.83;;;14.80;99.10;;;;;;4998047;28;20057;-86
2022/09/17 12:38:00;;;;;;;13.60;3.13;;;14.70;98.40;;;;;;5015531;28;20432;-90
2022/09/17 12:40:49;;;;;;;12.40;3.15;;;14.90;98.30;;;;;;4998518;28;20046;-87
2022/09/17 12:43:57;;;;;;;16.30;2.92;;;15.00;98.20;;;;;;4991706;28;20062;-89
2022/09/17 12:46:25;;;;;;;12.75;3.05;;;15.20;96.20;;;;;;5014572;28;20385;-87
2022/09/17 12:49:23;;;;;;;11.27;2.88;;;15.20;95.70;;;;;;5015184;28;20073;-88
2022/09/17 12:51:54;;;;;;;11.77;2.67;;;15.20;96.10;;;;;;5014451;28;20046;-87
2022/09/17 12:54:29;;;;;;;14.73;2.80;;;15.40;97.00;;;;;;5014782;28;20081;-89
2022/09/17 12:57:10;;;;;;;14.95;3.15;;;15.50;95.20;;;;;;4999272;28;20507;-89
2022/09/17 12:59:52;;;;;;;16.45;3.65;;;15.50;94.80;;;;;;5015090;28;20049;-87
2022/09/17 13:02:27;;;;;;;17.73;3.00;;;15.20;96.50;;;;;;4997918;28;20497;-88
2022/09/17 13:05:05;;;;;;;17.60;2.65;;;15.00;96.30;;;;;;4997993;28;20053;-87
2022/09/17 13:07:47;;;;;;;12.60;3.45;;;14.90;96.20;;;;;;4998354;28;20053;-88
2022/09/17 13:10:22;;;;;;;12.88;2.92;;;15.10;96.00;;;;;;5013551;28;20465;-88
2022/09/17 13:13:08;;;;;;;17.83;3.40;;;15.10;95.70;;;;;;4997457;28;20046;-89
2022/09/17 13:16:10;;;;;;;15.30;3.35;;;15.30;96.70;;;;;;4987330;28;20061;-88
2022/09/17 13:19:11;;;;;;;14.13;3.70;;;15.50;96.10;;;;;;5014837;28;20422;-87
2022/09/17 13:21:54;;;;;;;17.48;3.83;;;15.70;95.60;;;;;;5013908;28;20184;-88
2022/09/17 13:24:30;;;;;;;19.27;3.40;;;15.80;95.70;;;;;;4998439;28;20092;-88
2022/09/17 13:27:00;;;;;;;21.30;3.85;;;15.90;95.60;;;;;;5013951;28;20564;-88
2022/09/17 13:29:53;;;;;;;17.25;3.45;;;15.70;94.90;;;;;;4981292;28;20085;-89
2022/09/17 13:32:34;;;;;;;18.48;3.78;;;15.60;94.70;;;;;;4997342;28;20046;-89
2022/09/17 13:35:09;;;;;;;10.77;2.78;;;15.10;93.50;;;;;;4997018;28;20054;-87
2022/09/17 13:37:44;;;;;;;11.57;2.58;;;15.20;92.90;;;;;;5014488;28;20083;-87
2022/09/17 13:40:38;;;;;;;14.25;2.70;;;15.20;92.40;;;;;;4997893;28;20050;-87
2022/09/17 13:43:07;;;;;;;12.25;2.47;;;15.30;90.50;;;;;;4978625;28;20064;-87
2022/09/17 13:45:53;;;;;;;16.17;2.97;;;15.30;89.90;;;;;;4997246;28;20098;-88
2022/09/17 13:48:24;;;;;;;20.45;3.20;;;15.40;90.30;;;;;;4997762;28;20050;-88
2022/09/17 13:50:52;;;;;;;13.90;2.95;;;15.40;90.80;;;;;;4997890;28;20073;-88
2022/09/17 13:53:26;;;;;;;21.60;3.30;;;15.40;88.80;;;;;;4981094;28;20054;-88
2022/09/17 13:55:58;;;;;;;17.60;3.42;;;15.40;90.20;;;;;;5013466;28;20485;-87
2022/09/17 13:58:28;;;;;;;13.13;3.35;;;15.40;90.90;;;;;;4997102;28;20057;-87
2022/09/17 14:01:03;;;;;;;17.70;3.25;;;15.40;91.60;;;;;;4997549;28;20049;-87
2022/09/17 14:03:40;;;;;;;19.88;3.83;;;15.50;91.50;;;;;;4997270;28;20116;-87
2022/09/17 14:06:16;;;;;;;10.73;3.10;;;15.60;91.50;;;;;;5012912;28;20081;-87
2022/09/17 14:08:46;;;;;;;12.95;2.33;;;15.70;89.90;;;;;;4996825;28;20477;-87
2022/09/17 14:11:25;;;;;;;12.98;2.22;;;15.60;89.30;;;;;;4996781;28;20089;-87
2022/09/17 14:13:56;;;;;;;11.82;2.25;;;15.40;89.90;;;;;;4996672;28;20085;-87
2022/09/17 14:16:32;;;;;;;14.05;2.60;;;15.40;90.90;;;;;;4997164;28;20053;-87
2022/09/17 14:19:26;;;;;;;12.18;2.60;;;15.60;91.60;;;;;;4996595;28;20057;-87
2022/09/17 14:22:01;;;;;;;;;;;15.80;92.60;;;;;;5013495;28;20045;-87
2022/09/17 14:24:41;;;;;;;14.80;2.90;;;15.60;94.50;;;;;;4996564;28;20004;-86
2022/09/17 14:27:12;;;;;;;10.57;3.10;;;15.10;96.70;;;;;;4996302;28;20056;-86
2022/09/17 14:29:56;;;;;;;13.23;2.78;;;14.60;98.20;;;;;;4996329;28;20131;-86
2022/09/17 14:32:41;;;;;;;12.93;3.53;;;14.20;99.60;;;;;;4996613;28;20049;-87
2022/09/17 14:35:18;;;;;;;14.80;2.85;;;13.90;99.90;;;;;;4995736;28;20101;-87
2022/09/17 14:37:49;;;;;;;12.13;2.60;;;13.90;99.90;;;;;;4996908;28;20057;-87